| Date | Time | Temp. (oF) | Dew Point (oF) | Rel. Hum. (%) | Press. (in.) | Wind Dir. | Wind Speed (mph) | Hourly Rainfall (in.) |
|
|---|---|---|---|---|---|---|---|---|---|
| 1 | 10/04 | 00:00 | 59 | 57 | 95 | 30.04 | S | 0 | 0.00 |
| 2 | 10/03 | 23:00 | 59 | 56 | 93 | 30.05 | S | 2 | 0.00 |
| 3 | 10/03 | 22:00 | 61 | 58 | 90 | 30.05 | ESE | 1 | 0.00 |
| 4 | 10/03 | 21:00 | 63 | 57 | 83 | 30.04 | WNW | 1 | 0.00 |
| 5 | 10/03 | 20:00 | 66 | 57 | 73 | 30.03 | WNW | 0 | 0.00 |
| 6 | 10/03 | 19:00 | 70 | 55 | 61 | 30.02 | WNW | 1 | 0.00 |
| 7 | 10/03 | 18:00 | 76 | 56 | 52 | 30.02 | NNW | 3 | 0.00 |
| 8 | 10/03 | 17:00 | 78 | 57 | 49 | 30.01 | WNW | 5 | 0.00 |
| 9 | 10/03 | 16:00 | 78 | 58 | 51 | 30.01 | W | 3 | 0.00 |
| 10 | 10/03 | 15:00 | 78 | 59 | 53 | 30.02 | W | 10 | 0.00 |
| 11 | 10/03 | 14:00 | 77 | 59 | 55 | 30.04 | SSW | 3 | 0.00 |
| 12 | 10/03 | 13:00 | 75 | 58 | 56 | 30.05 | W | 4 | 0.00 |
| 13 | 10/03 | 12:00 | 73 | 59 | 63 | 30.06 | NNW | 6 | 0.00 |
| 14 | 10/03 | 11:00 | 72 | 59 | 65 | 30.07 | NNW | 4 | 0.00 |
| 15 | 10/03 | 10:00 | 70 | 60 | 72 | 30.06 | N | 6 | 0.00 |
| 16 | 10/03 | 09:00 | 67 | 63 | 90 | 30.05 | NW | 7 | 0.00 |
| 17 | 10/03 | 08:00 | 64 | 63 | 99 | 30.04 | WNW | 1 | 0.00 |
| 18 | 10/03 | 07:00 | 62 | 61 | 99 | 30.03 | N | 1 | 0.00 |
| 19 | 10/03 | 06:00 | 62 | 61 | 97 | 30.01 | N | 0 | 0.00 |
| 20 | 10/03 | 05:00 | 62 | 61 | 97 | 30.00 | N | 1 | 0.00 |
| 21 | 10/03 | 04:00 | 63 | 61 | 96 | 29.99 | N | 0 | 0.00 |
| 22 | 10/03 | 03:00 | 64 | 62 | 94 | 29.99 | N | 0 | 0.00 |
| 23 | 10/03 | 02:00 | 65 | 62 | 93 | 29.99 | WNW | 1 | 0.00 |
| 24 | 10/03 | 01:00 | 65 | 61 | 90 | 29.98 | NE | 2 | 0.00 |